Terminal Aerodrome Forecast
Issued by NWS

Home | Current Version | Previous Version | Text Only | Print | Product List | Glossary On
Versions: 1 2 3 4 5 6 7 8 9 10 11 12 13 14 15 16 17 18
000
FTUS43 KGRR 161736
TAFLAN
TAF
KLAN 161736Z 1618/1718 17006KT P6SM BKN040
     FM170000 12005KT P6SM SCT150
     FM170800 13006KT P6SM VCTS SCT025CB BKN050
     FM171000 14006KT P6SM VCTS OVC010CB
     FM171500 18014G24KT P6SM FEW050=

USA.gov is the U.S. government's official web portal to all federal, state and local government web resources and services.